createdAt,value
2022-07-26T00:01:31.993Z,61.30
2022-07-26T00:03:59.241Z,61.30
2022-07-26T00:06:25.995Z,61.80
2022-07-26T00:08:52.822Z,62.00
2022-07-26T00:11:19.741Z,62.70
2022-07-26T00:13:46.623Z,63.30
2022-07-26T00:16:13.706Z,63.50
2022-07-26T00:18:40.513Z,62.00
2022-07-26T00:21:07.348Z,62.50
2022-07-26T00:23:35.259Z,62.10
2022-07-26T00:26:02.060Z,61.70
2022-07-26T00:28:28.807Z,61.70
2022-07-26T00:30:55.552Z,61.60
2022-07-26T00:33:22.290Z,61.40
2022-07-26T00:35:49.063Z,61.70
2022-07-26T00:38:16.170Z,61.20
2022-07-26T00:40:43.225Z,61.20
2022-07-26T00:43:09.981Z,61.30
2022-07-26T00:45:36.793Z,61.30
2022-07-26T00:48:03.676Z,61.40
2022-07-26T00:50:30.437Z,61.40
2022-07-26T00:52:57.192Z,61.70
2022-07-26T00:55:24.141Z,62.10
2022-07-26T00:57:50.925Z,61.70
2022-07-26T01:00:19.347Z,58.50
2022-07-26T01:02:46.201Z,58.20
2022-07-26T01:05:13.009Z,61.70
2022-07-26T01:07:39.781Z,62.90
2022-07-26T01:10:07.273Z,62.80
2022-07-26T01:12:34.041Z,62.70
2022-07-26T01:15:00.812Z,62.40
2022-07-26T01:17:27.560Z,62.40
2022-07-26T01:19:54.706Z,62.50
2022-07-26T01:22:21.512Z,62.40
2022-07-26T01:24:48.269Z,62.40
2022-07-26T01:27:15.040Z,62.40
2022-07-26T01:29:41.804Z,62.10
2022-07-26T01:32:08.761Z,61.90
2022-07-26T01:34:35.534Z,62.00
2022-07-26T01:37:02.571Z,61.70
2022-07-26T01:39:29.319Z,61.70
2022-07-26T01:41:56.975Z,61.60
2022-07-26T01:44:23.872Z,61.70
2022-07-26T01:46:50.808Z,61.30
2022-07-26T01:49:17.708Z,61.20
2022-07-26T01:51:44.521Z,61.30
2022-07-26T01:54:11.772Z,61.00
2022-07-26T01:56:38.823Z,60.80
2022-07-26T01:59:05.583Z,60.60
2022-07-26T02:01:39.101Z,60.60
2022-07-26T02:04:08.236Z,60.40
2022-07-26T02:06:35.404Z,60.50
2022-07-26T02:09:04.260Z,60.30
2022-07-26T02:11:34.229Z,60.10
2022-07-26T02:14:01.004Z,60.00
2022-07-26T02:16:27.799Z,60.00
2022-07-26T02:18:54.585Z,60.00
2022-07-26T02:21:21.376Z,59.90
2022-07-26T02:23:48.140Z,59.70
2022-07-26T02:26:14.984Z,59.60
2022-07-26T02:28:41.930Z,59.90
2022-07-26T02:31:08.720Z,59.60
2022-07-26T02:33:38.469Z,59.60
2022-07-26T02:36:05.421Z,59.40
2022-07-26T02:38:32.287Z,59.40
2022-07-26T02:40:59.048Z,60.00
2022-07-26T02:43:26.929Z,59.20
2022-07-26T02:46:01.563Z,59.10
2022-07-26T02:48:30.260Z,59.20
2022-07-26T02:50:57.127Z,59.20
2022-07-26T02:53:23.868Z,59.10
2022-07-26T02:55:50.603Z,59.00
2022-07-26T02:58:17.452Z,58.90
2022-07-26T03:00:44.258Z,58.90
2022-07-26T03:03:14.246Z,58.80
2022-07-26T03:05:41.146Z,58.90
2022-07-26T03:08:08.016Z,58.80
2022-07-26T03:10:34.764Z,58.80
2022-07-26T03:13:02.167Z,58.60
2022-07-26T03:15:29.013Z,58.60
2022-07-26T03:17:55.901Z,58.50
2022-07-26T03:20:22.785Z,58.60
2022-07-26T03:22:49.535Z,58.70
2022-07-26T03:25:16.320Z,58.60
2022-07-26T03:27:43.106Z,58.50
2022-07-26T03:30:10.245Z,58.50
2022-07-26T03:32:37.023Z,58.50
2022-07-26T03:35:04.154Z,58.40
2022-07-26T03:37:45.586Z,58.50
2022-07-26T03:40:16.260Z,58.40
2022-07-26T03:42:43.143Z,58.40
2022-07-26T03:45:10.154Z,58.40
2022-07-26T03:47:37.449Z,58.30
2022-07-26T03:50:07.418Z,58.30
2022-07-26T03:52:34.249Z,58.30
2022-07-26T03:55:01.035Z,58.30
2022-07-26T03:57:28.491Z,58.20
2022-07-26T03:59:55.933Z,58.20
2022-07-26T04:02:22.800Z,58.20
2022-07-26T04:04:49.679Z,58.20
2022-07-26T04:07:16.447Z,58.20
2022-07-26T04:09:43.212Z,58.20
2022-07-26T04:12:09.970Z,58.20
2022-07-26T04:14:36.807Z,58.10
2022-07-26T04:17:03.598Z,58.10
2022-07-26T04:19:30.400Z,58.00
2022-07-26T04:21:57.154Z,58.10
2022-07-26T04:24:25.670Z,58.00
2022-07-26T04:26:52.917Z,58.10
2022-07-26T04:29:19.656Z,57.90
2022-07-26T04:31:46.939Z,58.00
2022-07-26T04:34:13.675Z,58.00
2022-07-26T04:36:40.430Z,58.00
2022-07-26T04:39:07.204Z,58.00
2022-07-26T04:41:34.037Z,58.00
2022-07-26T04:44:00.782Z,58.10
2022-07-26T04:46:27.641Z,58.10
2022-07-26T04:48:54.516Z,58.00
2022-07-26T04:51:21.360Z,58.00
2022-07-26T04:53:48.108Z,58.30
2022-07-26T04:56:14.946Z,58.10
2022-07-26T04:58:41.724Z,58.10
2022-07-26T05:01:10.790Z,58.20
2022-07-26T05:03:38.382Z,58.10
2022-07-26T05:06:27.997Z,57.40
2022-07-26T05:08:54.728Z,58.20
2022-07-26T05:11:21.490Z,58.10
2022-07-26T05:13:48.241Z,58.30
2022-07-26T05:16:15.063Z,58.10
2022-07-26T05:18:45.932Z,58.10
2022-07-26T05:21:16.411Z,58.10
2022-07-26T05:23:43.180Z,58.20
2022-07-26T05:26:11.137Z,58.20
2022-07-26T05:28:40.829Z,58.20
2022-07-26T05:31:07.754Z,58.00
2022-07-26T05:33:34.645Z,58.10
2022-07-26T05:36:01.389Z,58.30
2022-07-26T05:38:28.145Z,58.30
2022-07-26T05:40:54.986Z,58.20
2022-07-26T05:43:21.748Z,58.20
2022-07-26T05:45:48.578Z,58.40
2022-07-26T05:48:15.403Z,58.40
2022-07-26T05:50:42.208Z,58.40
2022-07-26T05:53:08.961Z,58.50
2022-07-26T05:55:35.717Z,58.50
2022-07-26T05:58:02.538Z,58.40
2022-07-26T06:00:29.658Z,58.40
2022-07-26T06:02:56.455Z,58.70
2022-07-26T06:05:23.261Z,58.50
2022-07-26T06:07:50.001Z,58.60
2022-07-26T06:10:16.751Z,58.60
2022-07-26T06:12:43.502Z,58.60
2022-07-26T06:15:15.538Z,58.80
2022-07-26T06:17:42.762Z,58.60
2022-07-26T06:20:09.859Z,58.50
2022-07-26T06:22:36.624Z,58.50
2022-07-26T06:25:03.487Z,58.50
2022-07-26T06:27:31.884Z,58.60
2022-07-26T06:29:58.643Z,58.70
2022-07-26T06:32:25.387Z,58.60
2022-07-26T06:34:52.169Z,58.70
2022-07-26T06:37:18.923Z,58.60
2022-07-26T06:39:46.371Z,58.70
2022-07-26T06:42:13.222Z,58.60
2022-07-26T06:44:40.017Z,58.50
2022-07-26T06:47:06.773Z,58.50
2022-07-26T06:49:33.545Z,58.60
2022-07-26T06:52:00.399Z,58.50
2022-07-26T06:54:27.178Z,58.80
2022-07-26T06:56:53.945Z,58.80
2022-07-26T06:59:20.698Z,58.90
2022-07-26T07:01:57.912Z,58.60
2022-07-26T07:04:26.753Z,59.20
2022-07-26T07:06:53.581Z,58.80
2022-07-26T07:09:21.929Z,58.70
2022-07-26T07:11:49.922Z,58.90
2022-07-26T07:14:23.107Z,58.80
2022-07-26T07:16:49.940Z,58.60
2022-07-26T07:19:16.786Z,58.70
2022-07-26T07:21:43.549Z,58.60
2022-07-26T07:24:10.618Z,58.80
2022-07-26T07:26:37.602Z,59.10
2022-07-26T07:29:04.450Z,59.10
2022-07-26T07:31:48.001Z,59.00
2022-07-26T07:34:16.148Z,59.00
2022-07-26T07:36:43.204Z,59.10
2022-07-26T07:39:15.618Z,59.10
2022-07-26T07:41:44.767Z,59.10
2022-07-26T07:44:11.744Z,59.10
2022-07-26T07:46:38.809Z,59.10
2022-07-26T07:49:06.950Z,59.10
2022-07-26T07:51:34.169Z,59.10
2022-07-26T07:54:05.677Z,59.20
2022-07-26T07:56:33.241Z,59.10
2022-07-26T07:59:00.069Z,59.10
2022-07-26T08:01:39.334Z,59.10
2022-07-26T08:04:07.969Z,59.70
2022-07-26T08:06:34.808Z,59.10
2022-07-26T08:09:01.561Z,59.10
2022-07-26T08:11:31.120Z,59.20
2022-07-26T08:14:00.699Z,59.80
2022-07-26T08:16:27.527Z,59.10
2022-07-26T08:18:57.752Z,59.00
2022-07-26T08:21:28.243Z,59.00
2022-07-26T08:23:56.375Z,59.30
2022-07-26T08:26:23.144Z,58.80
2022-07-26T08:28:59.962Z,58.80
2022-07-26T08:31:28.065Z,58.80
2022-07-26T08:33:55.033Z,58.80
2022-07-26T08:36:21.805Z,58.80
2022-07-26T08:38:48.697Z,58.90
2022-07-26T08:41:16.696Z,58.80
2022-07-26T08:43:48.983Z,58.80
2022-07-26T08:56:13.448Z,58.70
2022-07-26T08:58:40.917Z,58.10
2022-07-26T09:01:08.729Z,58.60
2022-07-26T09:03:38.144Z,58.50
2022-07-26T09:06:15.072Z,58.50
2022-07-26T09:08:41.864Z,58.20
2022-07-26T09:11:24.020Z,58.50
2022-07-26T09:14:02.414Z,58.20
2022-07-26T09:16:29.287Z,58.40
2022-07-26T09:18:56.324Z,58.30
2022-07-26T09:21:29.868Z,58.40
2022-07-26T09:23:56.842Z,58.40
2022-07-26T09:26:25.574Z,58.50
2022-07-26T09:29:01.667Z,58.60
2022-07-26T09:31:28.540Z,58.50
2022-07-26T09:33:55.402Z,58.60
2022-07-26T09:36:22.437Z,58.60
2022-07-26T09:38:49.921Z,58.70
2022-07-26T09:41:29.134Z,58.70
2022-07-26T09:43:56.566Z,58.70
2022-07-26T09:46:23.582Z,58.60
2022-07-26T09:49:09.966Z,58.60
2022-07-26T09:51:40.912Z,58.60
2022-07-26T09:54:08.880Z,58.50
2022-07-26T09:57:02.528Z,58.50
2022-07-26T09:59:29.343Z,58.40
2022-07-26T10:01:57.357Z,58.50
2022-07-26T10:04:24.436Z,58.50
2022-07-26T10:06:51.239Z,58.50
2022-07-26T10:09:18.803Z,58.40
2022-07-26T10:12:02.648Z,58.40
2022-07-26T10:14:39.692Z,58.20
2022-07-26T10:17:29.015Z,58.00
2022-07-26T10:20:01.954Z,58.10
2022-07-26T10:22:32.305Z,58.00
2022-07-26T10:25:19.210Z,58.20
2022-07-26T10:27:52.956Z,58.00
2022-07-26T10:30:19.839Z,57.90
2022-07-26T10:33:03.197Z,57.90
2022-07-26T10:35:53.942Z,57.70
2022-07-26T10:38:24.341Z,57.70
2022-07-26T10:40:58.321Z,57.30
2022-07-26T10:43:41.847Z,57.50
2022-07-26T10:46:12.051Z,57.50
2022-07-26T10:48:56.977Z,57.10
2022-07-26T10:51:24.554Z,57.50
2022-07-26T10:53:59.126Z,57.10
2022-07-26T10:56:28.711Z,56.90
2022-07-26T10:59:02.210Z,56.30
2022-07-26T11:01:32.753Z,56.40
2022-07-26T11:03:59.620Z,56.30
2022-07-26T11:06:27.264Z,56.50
2022-07-26T11:08:54.132Z,56.70
2022-07-26T11:11:27.964Z,56.40
2022-07-26T11:14:03.459Z,56.40
2022-07-26T11:16:35.993Z,56.60
2022-07-26T11:19:11.960Z,56.60
2022-07-26T11:21:39.105Z,56.60
2022-07-26T11:24:05.988Z,56.60
2022-07-26T11:26:35.033Z,56.70
2022-07-26T11:29:06.170Z,56.70
2022-07-26T11:31:51.934Z,56.50
2022-07-26T11:34:27.893Z,56.40
2022-07-26T11:36:55.511Z,56.50
2022-07-26T11:39:23.042Z,56.60
2022-07-26T11:41:49.873Z,56.50
2022-07-26T11:44:17.304Z,56.50
2022-07-26T11:46:47.950Z,57.10
2022-07-26T11:50:00.914Z,56.60
2022-07-26T11:52:14.874Z,57.10
2022-07-26T11:54:44.705Z,56.50
2022-07-26T11:57:12.763Z,56.40
2022-07-26T12:01:33.310Z,55.90
2022-07-26T12:04:02.572Z,57.10
2022-07-26T12:06:30.361Z,56.70
2022-07-26T12:08:57.538Z,56.40
2022-07-26T12:11:25.579Z,56.20
2022-07-26T12:13:56.723Z,56.10
2022-07-26T12:16:36.227Z,55.70
2022-07-26T12:19:03.732Z,55.60
2022-07-26T12:21:43.689Z,56.00
2022-07-26T12:24:11.430Z,57.30
2022-07-26T12:26:38.669Z,56.80
2022-07-26T12:29:24.316Z,56.40
2022-07-26T12:32:00.785Z,56.00
2022-07-26T12:34:27.571Z,55.90
2022-07-26T12:36:54.360Z,55.80
2022-07-26T12:39:21.806Z,55.70
2022-07-26T12:41:50.535Z,55.60
2022-07-26T12:44:17.495Z,55.70
2022-07-26T12:46:47.444Z,55.70
2022-07-26T12:49:14.370Z,55.50
2022-07-26T12:51:41.379Z,55.60
2022-07-26T12:54:08.676Z,55.60
2022-07-26T12:56:35.648Z,55.50
2022-07-26T12:59:02.437Z,55.60
2022-07-26T13:01:29.661Z,55.50
2022-07-26T13:03:56.577Z,55.60
2022-07-26T13:06:23.356Z,55.70
2022-07-26T13:08:50.145Z,55.70
2022-07-26T13:11:16.914Z,55.70
2022-07-26T13:13:43.677Z,55.80
2022-07-26T13:16:12.335Z,55.90
2022-07-26T13:18:39.468Z,55.90
2022-07-26T13:21:06.299Z,56.00
2022-07-26T13:23:34.977Z,56.10
2022-07-26T13:26:02.647Z,56.00
2022-07-26T13:28:30.254Z,56.00
2022-07-26T13:30:57.100Z,55.90
2022-07-26T13:33:23.881Z,55.90
2022-07-26T13:35:50.656Z,55.80
2022-07-26T13:38:19.661Z,55.70
2022-07-26T13:40:46.560Z,55.70
2022-07-26T13:43:13.350Z,55.60
2022-07-26T13:45:40.202Z,55.50
2022-07-26T13:48:07.252Z,55.50
2022-07-26T13:50:34.060Z,55.40
2022-07-26T13:53:00.837Z,55.30
2022-07-26T13:55:27.611Z,55.30
2022-07-26T13:57:57.105Z,55.10
2022-07-26T14:00:28.856Z,55.00
2022-07-26T14:02:57.138Z,54.80
2022-07-26T14:05:24.235Z,54.90
2022-07-26T14:07:51.042Z,54.80
2022-07-26T14:10:17.804Z,54.90
2022-07-26T14:12:44.578Z,54.80
2022-07-26T14:15:16.833Z,54.90
2022-07-26T14:17:48.128Z,54.50
2022-07-26T14:20:16.958Z,54.50
2022-07-26T14:22:44.044Z,54.80
2022-07-26T14:25:10.790Z,55.00
2022-07-26T14:27:37.553Z,54.80
2022-07-26T14:30:04.573Z,54.70
2022-07-26T14:32:31.351Z,54.60
2022-07-26T14:34:58.163Z,54.70
2022-07-26T14:37:43.377Z,54.80
2022-07-26T14:40:12.396Z,55.00
2022-07-26T14:42:39.209Z,55.10
2022-07-26T14:45:06.522Z,55.50
2022-07-26T14:47:33.277Z,55.80
2022-07-26T14:50:06.445Z,56.00
2022-07-26T14:52:34.288Z,56.10
2022-07-26T14:55:01.053Z,56.10
2022-07-26T14:57:27.895Z,56.40
2022-07-26T14:59:54.692Z,56.40
2022-07-26T15:02:21.678Z,56.40
2022-07-26T15:04:48.455Z,53.60
2022-07-26T15:07:15.233Z,52.40
2022-07-26T15:09:42.004Z,51.30
2022-07-26T15:12:08.825Z,50.50
2022-07-26T15:14:35.952Z,51.10
2022-07-26T15:17:03.485Z,49.20
2022-07-26T15:19:30.276Z,48.50
2022-07-26T15:21:57.086Z,47.90
2022-07-26T15:24:24.382Z,47.50
2022-07-26T15:26:51.427Z,47.00
2022-07-26T15:29:18.207Z,46.50
2022-07-26T15:31:45.522Z,46.00
2022-07-26T15:34:12.750Z,45.60
2022-07-26T15:36:39.669Z,45.30
2022-07-26T15:39:16.655Z,45.00
2022-07-26T15:41:44.865Z,44.80
2022-07-26T15:44:12.579Z,45.30
2022-07-26T15:46:39.902Z,47.30
2022-07-26T15:49:07.420Z,48.20
2022-07-26T15:51:34.347Z,48.30
2022-07-26T15:54:02.097Z,48.20
2022-07-26T15:56:28.847Z,48.10
2022-07-26T15:58:55.593Z,48.20
2022-07-26T16:01:22.412Z,48.10
2022-07-26T16:03:49.281Z,48.00
2022-07-26T16:06:16.812Z,48.10
2022-07-26T16:09:05.875Z,48.10
2022-07-26T16:11:30.594Z,47.80
2022-07-26T16:14:01.744Z,48.10
2022-07-26T16:16:29.729Z,48.00
2022-07-26T16:18:56.823Z,48.30
2022-07-26T16:21:23.611Z,48.20
2022-07-26T16:23:51.101Z,48.10
2022-07-26T16:26:18.068Z,48.10
2022-07-26T16:28:44.840Z,47.80
2022-07-26T16:31:11.667Z,47.50
2022-07-26T16:33:45.847Z,47.20
2022-07-26T16:36:13.092Z,46.90
2022-07-26T16:38:39.841Z,46.70
2022-07-26T16:41:06.631Z,46.60
2022-07-26T16:43:34.604Z,46.30
2022-07-26T16:46:01.400Z,46.40
2022-07-26T16:48:28.226Z,46.00
2022-07-26T16:50:55.158Z,45.80
2022-07-26T16:53:21.893Z,45.40
2022-07-26T16:55:51.403Z,45.30
2022-07-26T16:58:18.563Z,45.30
2022-07-26T17:00:45.536Z,45.00
2022-07-26T17:03:15.612Z,44.90
2022-07-26T17:05:43.795Z,44.80
2022-07-26T17:08:10.729Z,44.60
2022-07-26T17:10:37.684Z,44.50
2022-07-26T17:13:04.543Z,44.80
2022-07-26T17:15:31.317Z,44.00
2022-07-26T17:17:58.232Z,43.90
2022-07-26T17:20:25.086Z,43.80
2022-07-26T17:22:52.500Z,43.60
2022-07-26T17:25:19.267Z,43.40
2022-07-26T17:27:46.054Z,43.30
2022-07-26T17:30:12.860Z,43.20
2022-07-26T17:32:39.634Z,42.90
2022-07-26T17:35:07.106Z,43.10
2022-07-26T17:37:36.724Z,42.80
2022-07-26T17:40:04.128Z,42.80
2022-07-26T17:42:30.857Z,42.70
2022-07-26T17:44:57.612Z,42.40
2022-07-26T17:47:29.359Z,42.60
2022-07-26T17:52:50.867Z,42.20
2022-07-26T17:55:18.940Z,42.30
2022-07-26T17:57:46.133Z,42.80
2022-07-26T18:00:13.265Z,44.00
2022-07-26T18:02:40.075Z,45.10
2022-07-26T18:05:07.070Z,45.70
2022-07-26T18:07:33.849Z,46.10
2022-07-26T18:10:00.600Z,46.70
2022-07-26T18:12:27.350Z,46.90
2022-07-26T18:14:54.112Z,47.10
2022-07-26T18:17:20.929Z,47.30
2022-07-26T18:19:47.666Z,47.40
2022-07-26T18:22:14.429Z,47.50
2022-07-26T18:24:41.219Z,47.60
2022-07-26T18:27:08.031Z,47.80
2022-07-26T18:29:34.811Z,47.90
2022-07-26T18:32:02.263Z,48.20
2022-07-26T18:34:29.041Z,48.50
2022-07-26T18:36:55.849Z,48.50
2022-07-26T18:39:22.783Z,48.50
2022-07-26T18:41:49.625Z,48.70
2022-07-26T18:44:16.414Z,48.90
2022-07-26T18:46:43.274Z,49.10
2022-07-26T18:49:10.485Z,49.10
2022-07-26T18:51:48.552Z,49.40
2022-07-26T18:54:16.126Z,49.50
2022-07-26T18:56:42.902Z,49.50
2022-07-26T18:59:09.955Z,49.70
2022-07-26T19:01:37.024Z,49.90
2022-07-26T19:04:07.155Z,50.00
2022-07-26T19:06:34.775Z,50.00
2022-07-26T19:09:01.613Z,49.90
2022-07-26T19:11:29.675Z,50.30
2022-07-26T19:13:56.497Z,50.20
2022-07-26T19:16:23.306Z,50.60
2022-07-26T19:18:53.835Z,50.50
2022-07-26T19:21:24.259Z,50.70
2022-07-26T19:23:51.024Z,50.70
2022-07-26T19:26:17.775Z,50.70
2022-07-26T19:28:44.546Z,50.80
2022-07-26T19:31:11.359Z,50.90
2022-07-26T19:33:38.196Z,51.00
2022-07-26T19:36:05.104Z,51.10
2022-07-26T19:38:33.104Z,51.10
2022-07-26T19:41:02.385Z,51.30
2022-07-26T19:43:29.136Z,51.30
2022-07-26T19:45:56.027Z,51.40
2022-07-26T19:48:22.825Z,51.40
2022-07-26T19:50:51.321Z,51.60
2022-07-26T19:53:18.147Z,51.50
2022-07-26T19:55:44.927Z,51.60
2022-07-26T19:58:11.710Z,51.70
2022-07-26T20:00:38.487Z,51.70
2022-07-26T20:03:05.274Z,51.90
2022-07-26T20:05:32.145Z,52.00
2022-07-26T20:08:00.154Z,51.90
2022-07-26T20:10:31.812Z,51.90
2022-07-26T20:12:59.226Z,52.10
2022-07-26T20:15:26.165Z,52.10
2022-07-26T20:17:53.034Z,52.10
2022-07-26T20:20:20.253Z,52.40
2022-07-26T20:22:47.097Z,52.60
2022-07-26T20:25:18.031Z,52.50
2022-07-26T20:27:49.930Z,52.80
2022-07-26T20:30:17.040Z,53.70
2022-07-26T20:32:44.012Z,54.30
2022-07-26T20:35:10.763Z,54.70
2022-07-26T20:37:37.710Z,54.80
2022-07-26T20:40:04.717Z,55.20
2022-07-26T20:42:33.883Z,55.40
2022-07-26T20:45:01.252Z,55.90
2022-07-26T20:47:28.008Z,56.40
2022-07-26T20:49:59.649Z,56.90
2022-07-26T20:52:29.500Z,56.60
2022-07-26T20:54:56.259Z,57.80
2022-07-26T20:57:23.627Z,58.40
2022-07-26T20:59:50.480Z,58.80
2022-07-26T21:02:17.412Z,59.60
2022-07-26T21:04:45.169Z,59.80
2022-07-26T21:07:12.068Z,60.20
2022-07-26T21:09:38.868Z,60.60
2022-07-26T21:12:05.802Z,61.00
2022-07-26T21:14:32.564Z,61.80
2022-07-26T21:16:59.680Z,62.80
2022-07-26T21:19:26.487Z,62.20
2022-07-26T21:21:57.105Z,61.30
2022-07-26T21:24:23.960Z,60.80
2022-07-26T21:26:50.778Z,60.90
2022-07-26T21:29:17.577Z,60.40
2022-07-26T21:31:44.326Z,59.80
2022-07-26T21:34:11.528Z,59.50
2022-07-26T21:36:40.321Z,59.30
2022-07-26T21:39:07.822Z,59.20
2022-07-26T21:41:34.977Z,58.80
2022-07-26T21:44:01.756Z,58.70
2022-07-26T21:46:28.560Z,58.30
2022-07-26T21:48:55.420Z,58.10
2022-07-26T21:51:22.204Z,57.90
2022-07-26T21:53:48.954Z,58.40
2022-07-26T21:56:15.982Z,57.50
2022-07-26T21:58:42.728Z,57.20
2022-07-26T22:01:11.299Z,57.50
2022-07-26T22:03:38.382Z,57.20
2022-07-26T22:06:05.409Z,57.30
2022-07-26T22:08:32.155Z,57.40
2022-07-26T22:10:58.898Z,57.50
2022-07-26T22:13:25.675Z,57.70
2022-07-26T22:15:52.496Z,57.60
2022-07-26T22:18:22.291Z,57.80
2022-07-26T22:20:49.882Z,57.50
2022-07-26T22:23:17.120Z,55.70
2022-07-26T22:25:43.879Z,54.10
2022-07-26T22:28:10.770Z,52.70
2022-07-26T22:30:37.598Z,51.80
2022-07-26T22:33:04.774Z,50.90
2022-07-26T22:35:36.368Z,49.90
2022-07-26T22:38:04.150Z,49.00
2022-07-26T22:40:30.989Z,48.50
2022-07-26T22:43:00.417Z,47.90
2022-07-26T22:45:27.391Z,47.10
2022-07-26T22:47:56.070Z,46.60
2022-07-26T22:50:23.632Z,46.30
2022-07-26T22:52:51.691Z,45.60
2022-07-26T22:55:18.494Z,45.30
2022-07-26T22:57:45.331Z,45.00
2022-07-26T23:00:12.734Z,44.40
2022-07-26T23:02:39.519Z,44.10
2022-07-26T23:05:06.619Z,43.90
2022-07-26T23:07:34.419Z,43.50
2022-07-26T23:10:02.083Z,43.00
2022-07-26T23:12:28.956Z,42.40
2022-07-26T23:14:55.683Z,41.70
2022-07-26T23:17:22.441Z,41.20
2022-07-26T23:19:49.233Z,40.80
2022-07-26T23:22:15.978Z,40.30
2022-07-26T23:24:43.524Z,40.10
2022-07-26T23:27:10.545Z,39.70
2022-07-26T23:29:37.311Z,39.40
2022-07-26T23:32:04.174Z,39.10
2022-07-26T23:34:30.935Z,39.00
2022-07-26T23:36:57.724Z,40.40
2022-07-26T23:39:24.484Z,42.20
2022-07-26T23:41:51.240Z,42.20
2022-07-26T23:44:17.979Z,42.20
2022-07-26T23:46:44.852Z,43.50
2022-07-26T23:49:11.947Z,45.30
2022-07-26T23:51:39.021Z,44.60
2022-07-26T23:54:05.916Z,43.90
2022-07-26T23:56:32.674Z,43.40
2022-07-26T23:58:59.427Z,42.90
